createdAt,value
2019-04-07T00:01:54.606Z,0
2019-04-07T00:03:06.852Z,0
2019-04-07T00:04:18.983Z,0
2019-04-07T00:05:31.182Z,0
2019-04-07T00:06:43.528Z,0
2019-04-07T00:07:55.569Z,0
2019-04-07T00:09:07.786Z,0
2019-04-07T00:10:19.981Z,0
2019-04-07T00:11:32.174Z,0
2019-04-07T00:13:56.563Z,0
2019-04-07T00:15:08.837Z,0
2019-04-07T00:16:21.018Z,0
2019-04-07T00:17:33.174Z,0
2019-04-07T00:19:57.513Z,0
2019-04-07T00:22:21.945Z,0
2019-04-07T00:23:34.755Z,0
2019-04-07T00:25:58.492Z,0
2019-04-07T00:27:10.676Z,0
2019-04-07T00:29:35.069Z,0
2019-04-07T00:30:47.354Z,0
2019-04-07T00:31:59.463Z,0
2019-04-07T00:33:11.663Z,0
2019-04-07T00:34:23.931Z,0
2019-04-07T00:35:37.176Z,0
2019-04-07T00:38:00.433Z,0
2019-04-07T00:39:12.624Z,0
2019-04-07T00:40:24.821Z,0
2019-04-07T00:41:37.032Z,0
2019-04-07T00:44:01.402Z,0
2019-04-07T00:45:16.130Z,0
2019-04-07T00:46:25.933Z,0
2019-04-07T00:47:37.996Z,0
2019-04-07T00:50:02.538Z,0
2019-04-07T00:51:14.584Z,0
2019-04-07T00:52:27.694Z,0
2019-04-07T00:53:38.995Z,0
2019-04-07T00:54:51.178Z,0
2019-04-07T00:56:03.403Z,0
2019-04-07T00:57:15.665Z,0
2019-04-07T00:58:27.767Z,0
2019-04-07T00:59:44.468Z,0
2019-04-07T01:02:04.429Z,0
2019-04-07T01:03:16.530Z,0
2019-04-07T01:04:33.363Z,0
2019-04-07T01:05:40.947Z,0
2019-04-07T01:06:53.132Z,0
2019-04-07T01:08:05.430Z,0
2019-04-07T01:09:17.498Z,0
2019-04-07T01:10:29.688Z,0
2019-04-07T01:11:41.961Z,0
2019-04-07T01:14:06.316Z,0
2019-04-07T01:15:18.524Z,0
2019-04-07T01:16:30.771Z,0
2019-04-07T01:17:42.886Z,0
2019-04-07T01:18:55.206Z,0
2019-04-07T01:20:07.377Z,0
2019-04-07T01:21:19.552Z,0
2019-04-07T01:22:31.740Z,0
2019-04-07T01:23:43.841Z,0
2019-04-07T01:24:56.032Z,0
2019-04-07T01:26:08.240Z,0
2019-04-07T01:27:20.463Z,0
2019-04-07T01:28:32.719Z,0
2019-04-07T01:29:44.834Z,0
2019-04-07T01:32:09.544Z,0
2019-04-07T01:33:21.470Z,0
2019-04-07T01:34:33.603Z,0
2019-04-07T01:35:45.888Z,0
2019-04-07T01:36:57.987Z,0
2019-04-07T01:38:10.192Z,0
2019-04-07T01:39:22.383Z,0
2019-04-07T01:40:34.616Z,0
2019-04-07T01:41:46.802Z,0
2019-04-07T01:42:59.055Z,0
2019-04-07T01:44:11.212Z,0
2019-04-07T01:45:23.366Z,0
2019-04-07T01:46:35.632Z,0
2019-04-07T01:47:47.738Z,0
2019-04-07T01:50:12.141Z,0
2019-04-07T01:51:24.347Z,0
2019-04-07T01:52:36.645Z,0
2019-04-07T01:53:48.996Z,0
2019-04-07T01:55:01.000Z,0
2019-04-07T01:56:13.138Z,0
2019-04-07T01:57:25.408Z,0
2019-04-07T01:58:37.513Z,0
2019-04-07T01:59:49.843Z,0
2019-04-07T02:02:14.104Z,0
2019-04-07T02:03:26.603Z,0
2019-04-07T02:05:50.857Z,0
2019-04-07T02:07:06.176Z,0
2019-04-07T02:08:15.081Z,0
2019-04-07T02:09:27.304Z,0
2019-04-07T02:10:39.475Z,0
2019-04-07T02:11:51.734Z,0
2019-04-07T02:13:03.862Z,0
2019-04-07T02:14:16.061Z,0
2019-04-07T02:15:28.253Z,0
2019-04-07T02:16:40.659Z,0
2019-04-07T02:17:52.655Z,0
2019-04-07T02:19:04.846Z,0
2019-04-07T02:20:17.019Z,0
2019-04-07T02:21:29.251Z,0
2019-04-07T02:22:41.417Z,0
2019-04-07T02:23:53.682Z,0
2019-04-07T02:26:18.042Z,0
2019-04-07T02:27:30.303Z,0
2019-04-07T02:28:42.382Z,0
2019-04-07T02:29:54.602Z,0
2019-04-07T02:31:07.048Z,0
2019-04-07T02:32:19.054Z,0
2019-04-07T02:34:43.516Z,0
2019-04-07T02:38:19.975Z,0
2019-04-07T02:39:32.177Z,0
2019-04-07T02:40:44.380Z,0
2019-04-07T02:41:56.555Z,0
2019-04-07T02:43:08.733Z,0
2019-04-07T02:44:20.922Z,0
2019-04-07T02:45:33.219Z,0
2019-04-07T02:46:45.351Z,0
2019-04-07T02:47:57.646Z,0
2019-04-07T02:49:09.699Z,0
2019-04-07T02:50:22.037Z,0
2019-04-07T02:51:34.180Z,0
2019-04-07T02:52:46.303Z,0
2019-04-07T02:53:58.479Z,0
2019-04-07T02:55:10.677Z,0
2019-04-07T02:56:22.903Z,0
2019-04-07T02:57:35.065Z,0
2019-04-07T02:58:47.293Z,0
2019-04-07T02:59:59.474Z,0
2019-04-07T03:02:23.859Z,0
2019-04-07T03:03:36.043Z,0
2019-04-07T03:06:00.523Z,0
2019-04-07T03:07:12.649Z,0
2019-04-07T03:08:24.859Z,0
2019-04-07T03:09:37.054Z,0
2019-04-07T03:10:49.260Z,0
2019-04-07T03:12:01.425Z,0
2019-04-07T03:13:13.608Z,0
2019-04-07T03:14:25.965Z,0
2019-04-07T03:15:38.095Z,0
2019-04-07T03:16:50.335Z,0
2019-04-07T03:18:02.472Z,0
2019-04-07T03:20:26.791Z,0
2019-04-07T03:21:38.974Z,0
2019-04-07T03:22:51.176Z,0
2019-04-07T03:24:03.985Z,0
2019-04-07T03:26:27.872Z,0
2019-04-07T03:27:39.949Z,0
2019-04-07T03:28:52.152Z,0
2019-04-07T03:30:04.338Z,0
2019-04-07T03:31:16.554Z,0
2019-04-07T03:32:28.757Z,0
2019-04-07T03:33:40.996Z,0
2019-04-07T03:34:53.257Z,0
2019-04-07T03:38:29.702Z,0
2019-04-07T03:39:41.903Z,0
2019-04-07T03:40:54.103Z,0
2019-04-07T03:42:06.325Z,0
2019-04-07T03:43:18.629Z,0
2019-04-07T03:44:30.680Z,0
2019-04-07T03:45:42.982Z,0
2019-04-07T03:46:55.146Z,0
2019-04-07T03:48:07.276Z,0
2019-04-07T03:49:19.463Z,0
2019-04-07T03:50:31.654Z,0
2019-04-07T03:51:43.866Z,0
2019-04-07T03:52:56.047Z,0
2019-04-07T03:54:08.246Z,0
2019-04-07T03:55:20.427Z,0
2019-04-07T03:56:32.698Z,0
2019-04-07T03:57:44.848Z,0
2019-04-07T03:58:57.037Z,0
2019-04-07T04:00:09.212Z,0
2019-04-07T04:02:33.605Z,0
2019-04-07T04:03:45.844Z,0
2019-04-07T04:04:58.142Z,0
2019-04-07T04:06:10.190Z,0
2019-04-07T04:07:22.490Z,0
2019-04-07T04:08:34.603Z,0
2019-04-07T04:10:58.979Z,0
2019-04-07T04:12:11.253Z,0
2019-04-07T04:14:35.640Z,0
2019-04-07T04:15:49.031Z,0
2019-04-07T04:16:59.971Z,0
2019-04-07T04:18:12.176Z,0
2019-04-07T04:19:24.427Z,0
2019-04-07T04:20:36.793Z,0
2019-04-07T04:21:48.749Z,0
2019-04-07T04:23:00.923Z,4
2019-04-07T04:24:13.118Z,4
2019-04-07T04:26:37.528Z,4
2019-04-07T04:27:49.722Z,0
2019-04-07T04:29:01.925Z,4
2019-04-07T04:30:14.200Z,4
2019-04-07T04:31:26.324Z,8
2019-04-07T04:32:38.520Z,4
2019-04-07T04:33:50.678Z,8
2019-04-07T04:35:02.866Z,12
2019-04-07T04:36:15.071Z,16
2019-04-07T04:38:39.607Z,20
2019-04-07T04:39:51.650Z,24
2019-04-07T04:41:03.961Z,28
2019-04-07T04:42:18.433Z,36
2019-04-07T04:44:40.459Z,52
2019-04-07T04:47:04.871Z,76
2019-04-07T04:48:17.072Z,92
2019-04-07T04:50:41.434Z,124
2019-04-07T04:51:53.633Z,140
2019-04-07T04:53:05.808Z,164
2019-04-07T04:54:18.009Z,184
2019-04-07T04:55:30.217Z,208
2019-04-07T04:56:42.435Z,232
2019-04-07T04:57:55.306Z,256
2019-04-07T04:59:06.902Z,284
2019-04-07T05:00:19.161Z,312
2019-04-07T05:02:43.599Z,380
2019-04-07T05:03:55.604Z,428
2019-04-07T05:05:07.809Z,480
2019-04-07T05:06:19.989Z,536
2019-04-07T05:07:34.201Z,596
2019-04-07T05:08:48.128Z,648
2019-04-07T05:09:56.610Z,708
2019-04-07T05:11:08.853Z,768
2019-04-07T05:12:21.013Z,836
2019-04-07T05:13:33.207Z,908
2019-04-07T05:14:45.415Z,976
2019-04-07T05:15:57.578Z,1056
2019-04-07T05:17:09.720Z,1132
2019-04-07T05:18:21.902Z,1216
2019-04-07T05:19:34.193Z,1292
2019-04-07T05:20:46.299Z,1368
2019-04-07T05:21:59.906Z,1432
2019-04-07T05:23:12.000Z,1508
2019-04-07T05:24:23.027Z,1576
2019-04-07T05:26:47.276Z,1732
2019-04-07T05:27:59.566Z,1812
2019-04-07T05:30:23.886Z,1980
2019-04-07T05:31:36.174Z,2072
2019-04-07T05:32:48.291Z,2172
2019-04-07T05:34:00.463Z,2276
2019-04-07T05:35:12.669Z,2388
2019-04-07T05:36:24.940Z,2500
2019-04-07T05:38:49.267Z,2708
2019-04-07T05:40:01.495Z,2840
2019-04-07T05:41:13.635Z,3000
2019-04-07T05:42:25.810Z,3156
2019-04-07T05:43:38.008Z,3328
2019-04-07T05:44:50.266Z,3508
2019-04-07T05:46:02.488Z,3716
2019-04-07T05:47:14.698Z,3904
2019-04-07T05:48:26.831Z,4096
2019-04-07T05:50:51.289Z,5128
2019-04-07T05:52:03.493Z,5440
2019-04-07T05:54:27.775Z,5968
2019-04-07T05:55:39.980Z,6332
2019-04-07T05:56:52.266Z,6476
2019-04-07T05:59:16.551Z,6728
2019-04-07T06:00:28.745Z,6904
2019-04-07T06:04:05.417Z,7056
2019-04-07T06:05:17.546Z,7280
2019-04-07T06:06:29.967Z,7552
2019-04-07T06:07:42.246Z,7836
2019-04-07T06:08:54.120Z,7892
2019-04-07T06:10:06.322Z,7856
2019-04-07T06:11:18.584Z,7668
2019-04-07T06:12:30.769Z,7692
2019-04-07T06:13:43.128Z,7840
2019-04-07T06:16:07.308Z,7940
2019-04-07T06:17:19.486Z,7952
2019-04-07T06:18:31.694Z,8332
2019-04-07T06:20:56.228Z,8660
2019-04-07T06:22:08.295Z,8696
2019-04-07T06:23:20.487Z,8956
2019-04-07T06:25:44.924Z,9664
2019-04-07T06:28:09.253Z,10048
2019-04-07T06:29:21.579Z,10276
2019-04-07T06:30:33.633Z,10828
2019-04-07T06:31:45.918Z,11656
2019-04-07T06:32:58.024Z,12320
2019-04-07T06:34:10.216Z,12928
2019-04-07T06:35:22.463Z,12456
2019-04-07T06:37:47.003Z,11440
2019-04-07T06:38:59.023Z,11768
2019-04-07T06:40:11.248Z,13000
2019-04-07T06:41:23.392Z,14176
2019-04-07T06:42:35.587Z,14080
2019-04-07T06:43:47.796Z,14080
2019-04-07T06:45:00.034Z,13476
2019-04-07T06:46:12.268Z,14880
2019-04-07T06:47:24.398Z,15008
2019-04-07T06:48:36.593Z,15968
2019-04-07T06:51:01.020Z,18144
2019-04-07T06:52:13.170Z,20608
2019-04-07T06:53:25.344Z,20960
2019-04-07T06:54:37.623Z,20768
2019-04-07T06:55:49.768Z,21216
2019-04-07T06:57:01.952Z,21376
2019-04-07T06:58:14.190Z,20864
2019-04-07T06:59:26.473Z,21760
2019-04-07T07:00:38.550Z,21568
2019-04-07T07:03:02.924Z,23968
2019-04-07T07:04:15.108Z,24736
2019-04-07T07:05:27.477Z,25152
2019-04-07T07:06:39.973Z,25824
2019-04-07T07:07:51.720Z,25280
2019-04-07T07:09:03.965Z,26848
2019-04-07T07:10:16.084Z,27328
2019-04-07T07:11:28.392Z,29120
2019-04-07T07:12:40.527Z,29024
2019-04-07T07:15:04.925Z,29600
2019-04-07T07:16:17.182Z,29888
2019-04-07T07:17:29.358Z,29376
2019-04-07T07:18:41.488Z,31456
2019-04-07T07:19:53.753Z,31456
2019-04-07T07:21:05.866Z,32224
2019-04-07T07:22:18.153Z,33472
2019-04-07T07:23:30.272Z,34048
2019-04-07T07:24:42.461Z,34080
2019-04-07T07:25:54.629Z,34272
2019-04-07T07:27:06.854Z,35840
2019-04-07T07:28:19.191Z,36160
2019-04-07T07:29:31.238Z,35520
2019-04-07T07:30:43.427Z,35136
2019-04-07T07:31:55.649Z,36000
2019-04-07T07:33:07.927Z,36576
2019-04-07T07:34:19.998Z,36736
2019-04-07T07:35:32.197Z,39552
2019-04-07T07:36:44.389Z,37376
2019-04-07T07:39:08.870Z,39840
2019-04-07T07:40:20.989Z,38720
2019-04-07T07:41:33.302Z,39104
2019-04-07T07:42:45.397Z,40192
2019-04-07T07:43:57.652Z,41920
2019-04-07T07:45:09.840Z,42528
2019-04-07T07:46:21.952Z,40544
2019-04-07T07:47:34.138Z,42240
2019-04-07T07:48:46.352Z,44960
2019-04-07T07:49:58.557Z,44480
2019-04-07T07:51:10.774Z,42816
2019-04-07T07:52:22.945Z,43968
2019-04-07T07:54:47.398Z,46048
2019-04-07T07:57:11.710Z,46880
2019-04-07T07:58:23.968Z,47584
2019-04-07T07:59:36.135Z,49024
2019-04-07T08:00:48.353Z,48928
2019-04-07T08:02:00.552Z,48672
2019-04-07T08:03:12.721Z,50944
2019-04-07T08:05:37.217Z,43168
2019-04-07T08:06:49.284Z,43040
2019-04-07T08:08:01.582Z,49216
2019-04-07T08:09:14.360Z,50912
2019-04-07T08:10:25.856Z,55648
2019-04-07T08:11:38.048Z,57120
2019-04-07T08:15:14.627Z,57856
2019-04-07T08:16:26.824Z,55136
2019-04-07T08:18:51.343Z,58912
2019-04-07T08:20:03.407Z,58400
2019-04-07T08:21:15.627Z,59424
2019-04-07T08:23:40.131Z,57248
2019-04-07T08:24:52.230Z,56736
2019-04-07T08:28:28.793Z,59744
2019-04-07T08:29:40.974Z,60672
2019-04-07T08:30:53.196Z,62432
2019-04-07T08:32:05.469Z,61120
2019-04-07T08:33:17.558Z,59392
2019-04-07T08:34:29.761Z,58752
2019-04-07T08:35:41.991Z,59872
2019-04-07T08:36:54.215Z,61440
2019-04-07T08:40:33.620Z,60992
2019-04-07T08:41:42.956Z,61056
2019-04-07T08:42:55.123Z,61280
2019-04-07T08:44:07.355Z,62752
2019-04-07T08:45:19.528Z,63296
2019-04-07T08:46:31.877Z,63840
2019-04-07T08:47:43.915Z,64000
2019-04-07T08:50:08.300Z,65280
2019-04-07T08:51:20.512Z,64352
2019-04-07T08:52:32.677Z,63968
2019-04-07T08:53:45.021Z,65696
2019-04-07T08:54:57.081Z,65536
2019-04-07T08:56:09.399Z,63456
2019-04-07T08:57:21.664Z,62432
2019-04-07T08:59:45.852Z,60928
2019-04-07T09:00:58.045Z,60000
2019-04-07T09:02:10.241Z,63200
2019-04-07T09:03:22.466Z,64608
2019-04-07T09:04:34.648Z,64352
2019-04-07T09:05:46.831Z,64928
2019-04-07T09:06:59.042Z,66624
2019-04-07T09:08:11.417Z,66048
2019-04-07T09:09:23.533Z,67040
2019-04-07T09:10:35.652Z,67104
2019-04-07T09:11:47.815Z,69824
2019-04-07T09:13:00.008Z,69664
2019-04-07T09:16:36.722Z,69504
2019-04-07T09:17:48.792Z,68288
2019-04-07T09:19:00.977Z,66304
2019-04-07T09:20:13.228Z,67456
2019-04-07T09:21:25.424Z,66304
2019-04-07T09:22:37.576Z,69024
2019-04-07T09:23:49.807Z,66688
2019-04-07T09:25:02.062Z,65408
2019-04-07T09:28:38.606Z,74560
2019-04-07T09:29:50.770Z,70496
2019-04-07T09:31:02.944Z,68160
2019-04-07T09:32:15.340Z,67456
2019-04-07T09:33:27.515Z,68800
2019-04-07T09:34:40.392Z,68992
2019-04-07T09:35:51.818Z,70016
2019-04-07T09:37:07.459Z,67328
2019-04-07T09:39:28.387Z,68032
2019-04-07T09:40:40.532Z,68160
2019-04-07T09:41:52.807Z,65664
2019-04-07T09:43:05.094Z,65280
2019-04-07T09:45:29.290Z,64736
2019-04-07T09:47:53.687Z,67040
2019-04-07T09:52:42.500Z,67360
2019-04-07T09:56:19.129Z,71200
2019-04-07T09:57:31.298Z,73920
2019-04-07T09:58:43.449Z,74176
2019-04-07T09:59:55.621Z,71424
2019-04-07T10:01:07.871Z,74464
2019-04-07T10:04:44.606Z,70496
2019-04-07T10:07:08.798Z,74336
2019-04-07T10:08:20.989Z,71968
2019-04-07T10:09:33.264Z,74528
2019-04-07T10:11:57.596Z,68352
2019-04-07T10:16:46.334Z,68160
2019-04-07T10:19:10.849Z,77312
2019-04-07T10:20:22.932Z,78816
2019-04-07T10:21:35.262Z,48512
2019-04-07T10:22:47.349Z,33088
2019-04-07T10:23:59.551Z,52448
2019-04-07T10:25:11.704Z,80128
2019-04-07T10:27:36.104Z,84192
2019-04-07T10:28:48.445Z,84032
2019-04-07T10:31:12.685Z,82048
2019-04-07T10:33:37.096Z,82752
2019-04-07T10:34:49.360Z,85248
2019-04-07T10:36:01.467Z,85824
2019-04-07T10:37:13.754Z,87008
2019-04-07T10:39:38.072Z,84480
2019-04-07T10:40:50.302Z,80288
2019-04-07T10:42:02.492Z,86016
2019-04-07T10:43:14.626Z,84864
2019-04-07T10:44:26.826Z,82368
2019-04-07T10:45:39.082Z,81568
2019-04-07T10:48:03.430Z,80512
2019-04-07T10:49:15.606Z,76448
2019-04-07T10:52:52.260Z,80096
2019-04-07T10:54:04.370Z,80192
2019-04-07T10:55:16.677Z,81536
2019-04-07T10:56:31.151Z,83360
2019-04-07T10:57:40.969Z,84320
2019-04-07T11:00:05.397Z,85088
2019-04-07T11:01:17.541Z,83040
2019-04-07T11:04:54.130Z,83232
2019-04-07T11:06:06.343Z,81472
2019-04-07T11:07:18.507Z,79648
2019-04-07T11:08:30.741Z,79904
2019-04-07T11:09:42.926Z,84736
2019-04-07T11:12:07.443Z,83936
2019-04-07T11:13:19.569Z,81472
2019-04-07T11:16:56.098Z,84864
2019-04-07T11:18:08.301Z,83968
2019-04-07T11:19:20.426Z,82656
2019-04-07T11:20:32.640Z,78368
2019-04-07T11:21:45.035Z,75104
2019-04-07T11:22:57.042Z,72000
2019-04-07T11:24:09.218Z,71104
2019-04-07T11:25:21.514Z,60704
2019-04-07T11:28:57.991Z,79680
2019-04-07T11:30:10.186Z,79456
2019-04-07T11:31:22.646Z,79840
2019-04-07T11:32:34.714Z,78912
2019-04-07T11:33:46.780Z,76192
2019-04-07T11:36:11.185Z,78336
2019-04-07T11:37:23.378Z,79584
2019-04-07T11:41:00.020Z,74752
2019-04-07T11:43:24.343Z,11172
2019-04-07T11:45:49.434Z,10692
2019-04-07T11:47:00.989Z,10800
2019-04-07T11:48:13.090Z,11504
2019-04-07T11:49:25.484Z,13136
2019-04-07T11:53:01.955Z,13580
2019-04-07T11:57:50.659Z,9776
2019-04-07T11:59:02.856Z,9696
2019-04-07T12:00:15.028Z,9648
2019-04-07T12:08:40.452Z,10304
2019-04-07T12:09:52.664Z,9868
2019-04-07T12:12:16.980Z,9784
2019-04-07T12:13:29.156Z,9716
2019-04-07T12:15:53.565Z,10188
2019-04-07T12:17:05.735Z,10676
2019-04-07T12:18:18.042Z,11004
2019-04-07T12:19:30.177Z,10856
2019-04-07T12:20:42.319Z,10388
2019-04-07T12:21:54.520Z,8700
2019-04-07T12:23:06.808Z,8340
2019-04-07T12:24:18.896Z,7752
2019-04-07T12:27:55.475Z,8096
2019-04-07T12:30:19.884Z,7996
2019-04-07T12:31:32.063Z,7968
2019-04-07T12:33:56.508Z,7608
2019-04-07T12:35:08.639Z,7560
2019-04-07T12:36:21.482Z,7600
2019-04-07T12:41:09.631Z,8132
2019-04-07T12:42:21.920Z,7056
2019-04-07T12:43:34.023Z,7084
2019-04-07T12:44:46.291Z,7172
2019-04-07T12:45:58.411Z,7268
2019-04-07T12:47:10.612Z,7396
2019-04-07T12:48:22.813Z,7312
2019-04-07T12:49:35.060Z,6860
2019-04-07T12:51:59.441Z,7068
2019-04-07T12:53:11.653Z,7352
2019-04-07T12:54:23.838Z,8404
2019-04-07T12:55:35.935Z,9888
2019-04-07T12:56:48.185Z,9924
2019-04-07T12:58:00.346Z,9280
2019-04-07T13:00:24.717Z,8904
2019-04-07T13:04:01.292Z,6280
2019-04-07T13:05:13.505Z,6580
2019-04-07T13:06:25.688Z,6948
2019-04-07T13:07:37.877Z,6900
2019-04-07T13:08:50.084Z,6676
2019-04-07T13:10:02.356Z,6480
2019-04-07T13:11:14.468Z,6200
2019-04-07T13:12:26.655Z,5864
2019-04-07T13:13:38.855Z,5320
2019-04-07T13:16:03.257Z,5716
2019-04-07T13:17:15.437Z,5844
2019-04-07T13:18:27.617Z,5916
2019-04-07T13:19:39.881Z,5904
2019-04-07T13:20:51.985Z,5928
2019-04-07T13:22:04.204Z,5856
2019-04-07T13:24:28.684Z,5992
2019-04-07T13:28:05.336Z,5844
2019-04-07T13:29:17.454Z,5652
2019-04-07T13:30:29.544Z,5796
2019-04-07T13:31:41.821Z,6076
2019-04-07T13:32:53.977Z,6372
2019-04-07T13:34:06.124Z,6772
2019-04-07T13:36:30.612Z,8864
2019-04-07T13:37:42.707Z,8560
2019-04-07T13:40:07.392Z,6824
2019-04-07T13:41:19.623Z,5660
2019-04-07T13:43:43.755Z,5500
2019-04-07T13:44:55.868Z,5376
2019-04-07T13:46:08.065Z,5268
2019-04-07T13:47:20.329Z,5268
2019-04-07T13:48:32.486Z,5180
2019-04-07T13:49:44.932Z,5152
2019-04-07T13:52:09.111Z,5688
2019-04-07T13:54:33.415Z,6468
2019-04-07T13:55:45.620Z,6924
2019-04-07T13:58:10.041Z,6780
2019-04-07T13:59:22.342Z,6672
2019-04-07T14:00:34.374Z,7012
2019-04-07T14:01:46.650Z,6816
2019-04-07T14:05:23.288Z,6232
2019-04-07T14:06:35.693Z,5804
2019-04-07T14:07:47.544Z,5288
2019-04-07T14:08:59.978Z,5112
2019-04-07T14:10:11.929Z,5460
2019-04-07T14:12:36.354Z,5880
2019-04-07T14:13:48.586Z,5792
2019-04-07T14:16:13.075Z,6120
2019-04-07T14:17:25.082Z,6228
2019-04-07T14:19:49.505Z,7832
2019-04-07T14:21:01.664Z,8844
2019-04-07T14:22:13.911Z,9136
2019-04-07T14:24:38.354Z,9440
2019-04-07T14:25:50.527Z,9044
2019-04-07T14:28:14.865Z,8156
2019-04-07T14:29:27.108Z,7968
2019-04-07T14:31:51.655Z,8864
2019-04-07T14:33:03.605Z,8100
2019-04-07T14:34:15.813Z,8392
2019-04-07T14:35:27.981Z,9220
2019-04-07T14:36:40.739Z,8988
2019-04-07T14:37:52.444Z,8312
2019-04-07T14:39:04.590Z,7732
2019-04-07T14:41:28.966Z,7328
2019-04-07T14:42:41.220Z,6724
2019-04-07T14:43:53.380Z,6092
2019-04-07T14:46:17.755Z,5152
2019-04-07T14:47:29.940Z,4756
2019-04-07T14:48:42.180Z,4592
2019-04-07T14:49:54.317Z,4656
2019-04-07T14:52:18.725Z,5144
2019-04-07T14:53:30.979Z,4964
2019-04-07T14:55:55.393Z,4900
2019-04-07T14:57:07.530Z,4916
2019-04-07T14:58:19.672Z,5160
2019-04-07T14:59:31.864Z,5584
2019-04-07T15:00:44.068Z,5852
2019-04-07T15:01:56.809Z,5764
2019-04-07T15:03:08.436Z,5676
2019-04-07T15:04:20.718Z,5480
2019-04-07T15:05:32.843Z,5232
2019-04-07T15:06:45.061Z,4888
2019-04-07T15:07:57.312Z,4720
2019-04-07T15:09:09.444Z,4652
2019-04-07T15:10:21.643Z,4688
2019-04-07T15:11:33.899Z,4900
2019-04-07T15:12:45.987Z,5088
2019-04-07T15:16:22.666Z,5500
2019-04-07T15:17:34.916Z,5748
2019-04-07T15:18:48.877Z,5296
2019-04-07T15:19:59.605Z,4944
2019-04-07T15:22:23.550Z,5048
2019-04-07T15:23:35.745Z,5076
2019-04-07T15:24:47.939Z,5128
2019-04-07T15:26:00.217Z,5416
2019-04-07T15:28:24.507Z,6168
2019-04-07T15:29:36.714Z,6320
2019-04-07T15:30:49.039Z,6608
2019-04-07T15:32:01.135Z,6332
2019-04-07T15:33:13.286Z,6104
2019-04-07T15:34:25.490Z,6008
2019-04-07T15:35:37.673Z,6040
2019-04-07T15:36:49.949Z,6160
2019-04-07T15:38:02.046Z,6048
2019-04-07T15:40:26.424Z,5584
2019-04-07T15:41:38.630Z,5480
2019-04-07T15:42:50.859Z,5424
2019-04-07T15:44:03.015Z,5208
2019-04-07T15:45:15.214Z,5004
2019-04-07T15:46:27.461Z,4896
2019-04-07T15:47:39.657Z,5164
2019-04-07T15:48:51.799Z,5352
2019-04-07T15:50:04.018Z,5512
2019-04-07T15:52:28.446Z,5612
2019-04-07T15:53:40.594Z,5304
2019-04-07T15:54:52.771Z,5172
2019-04-07T15:56:05.133Z,4736
2019-04-07T15:57:17.136Z,4424
2019-04-07T15:58:29.370Z,4312
2019-04-07T15:59:41.629Z,4152
2019-04-07T16:00:53.866Z,4308
2019-04-07T16:02:05.934Z,4248
2019-04-07T16:04:30.326Z,3920
2019-04-07T16:05:42.503Z,3632
2019-04-07T16:06:55.870Z,3164
2019-04-07T16:08:06.961Z,2884
2019-04-07T16:09:19.082Z,2776
2019-04-07T16:10:31.457Z,2892
2019-04-07T16:11:43.479Z,2932
2019-04-07T16:12:55.706Z,3088
2019-04-07T16:14:07.866Z,3468
2019-04-07T16:16:32.260Z,4320
2019-04-07T16:17:44.453Z,4604
2019-04-07T16:18:56.646Z,4820
2019-04-07T16:20:08.856Z,4960
2019-04-07T16:21:21.019Z,5140
2019-04-07T16:22:33.206Z,4528
2019-04-07T16:23:45.442Z,4080
2019-04-07T16:24:57.615Z,3852
2019-04-07T16:26:09.793Z,3936
2019-04-07T16:30:58.625Z,3812
2019-04-07T16:32:10.840Z,3560
2019-04-07T16:33:22.947Z,3400
2019-04-07T16:34:35.243Z,3228
2019-04-07T16:35:47.350Z,3276
2019-04-07T16:36:59.533Z,3368
2019-04-07T16:38:11.743Z,3364
2019-04-07T16:39:23.967Z,3228
2019-04-07T16:40:36.110Z,2840
2019-04-07T16:41:48.307Z,2492
2019-04-07T16:43:00.509Z,2356
2019-04-07T16:44:12.756Z,2352
2019-04-07T16:45:24.930Z,2376
2019-04-07T16:46:37.100Z,2388
2019-04-07T16:47:49.300Z,2356
2019-04-07T16:49:01.468Z,2328
2019-04-07T16:50:13.653Z,2216
2019-04-07T16:51:25.972Z,2136
2019-04-07T16:52:38.055Z,2036
2019-04-07T16:53:50.398Z,1912
2019-04-07T16:55:02.442Z,1784
2019-04-07T16:56:14.649Z,1688
2019-04-07T16:57:26.832Z,1676
2019-04-07T16:58:39.032Z,1620
2019-04-07T16:59:51.206Z,1580
2019-04-07T17:01:03.429Z,1584
2019-04-07T17:02:15.611Z,1612
2019-04-07T17:04:40.077Z,1692
2019-04-07T17:05:52.288Z,1760
2019-04-07T17:07:07.933Z,1816
2019-04-07T17:08:16.655Z,1824
2019-04-07T17:09:28.774Z,1796
2019-04-07T17:10:40.973Z,1756
2019-04-07T17:11:53.417Z,1788
2019-04-07T17:13:05.475Z,1804
2019-04-07T17:14:17.543Z,1728
2019-04-07T17:16:41.952Z,1548
2019-04-07T17:17:54.125Z,1468
2019-04-07T17:19:06.402Z,1376
2019-04-07T17:20:18.504Z,1284
2019-04-07T17:21:31.178Z,1216
2019-04-07T17:22:42.997Z,1176
2019-04-07T17:23:55.090Z,1160
2019-04-07T17:25:07.268Z,1156
2019-04-07T17:26:19.460Z,1176
2019-04-07T17:28:43.995Z,1088
2019-04-07T17:29:56.212Z,1056
2019-04-07T17:31:08.259Z,1044
2019-04-07T17:32:20.478Z,1004
2019-04-07T17:33:32.778Z,964
2019-04-07T17:34:44.823Z,928
2019-04-07T17:35:57.006Z,900
2019-04-07T17:37:09.217Z,880
2019-04-07T17:38:21.594Z,844
2019-04-07T17:39:33.612Z,824
2019-04-07T17:40:45.990Z,784
2019-04-07T17:41:57.987Z,740
2019-04-07T17:43:11.264Z,712
2019-04-07T17:44:23.000Z,652
2019-04-07T17:45:34.580Z,600
2019-04-07T17:46:46.789Z,572
2019-04-07T17:47:58.972Z,544
2019-04-07T17:49:11.195Z,512
2019-04-07T17:50:23.396Z,484
2019-04-07T17:52:47.727Z,436
2019-04-07T17:53:59.987Z,420
2019-04-07T17:55:12.200Z,408
2019-04-07T17:56:24.475Z,392
2019-04-07T17:57:37.004Z,368
2019-04-07T17:58:48.691Z,348
2019-04-07T18:00:00.889Z,328
2019-04-07T18:01:13.076Z,312
2019-04-07T18:02:25.600Z,284
2019-04-07T18:04:49.721Z,244
2019-04-07T18:06:01.869Z,224
2019-04-07T18:07:14.106Z,208
2019-04-07T18:08:26.326Z,188
2019-04-07T18:10:50.652Z,148
2019-04-07T18:12:02.825Z,132
2019-04-07T18:13:15.029Z,116
2019-04-07T18:14:27.211Z,104
2019-04-07T18:16:51.719Z,80
2019-04-07T18:18:03.874Z,72
2019-04-07T18:19:16.166Z,60
2019-04-07T18:20:28.315Z,52
2019-04-07T18:21:40.371Z,48
2019-04-07T18:22:52.589Z,40
2019-04-07T18:24:04.778Z,36
2019-04-07T18:25:16.951Z,24
2019-04-07T18:26:29.227Z,24
2019-04-07T18:28:53.570Z,16
2019-04-07T18:30:05.814Z,16
2019-04-07T18:32:30.226Z,12
2019-04-07T18:33:42.378Z,4
2019-04-07T18:34:54.519Z,4
2019-04-07T18:36:06.710Z,8
2019-04-07T18:37:18.887Z,4
2019-04-07T18:38:31.105Z,4
2019-04-07T18:42:07.683Z,0
2019-04-07T18:43:19.954Z,0
2019-04-07T18:44:32.044Z,0
2019-04-07T18:45:44.248Z,0
2019-04-07T18:46:56.425Z,0
2019-04-07T18:48:08.727Z,0
2019-04-07T18:49:20.838Z,0
2019-04-07T18:50:33.040Z,0
2019-04-07T18:55:21.831Z,0
2019-04-07T18:56:33.988Z,0
2019-04-07T18:57:46.174Z,0
2019-04-07T18:58:58.390Z,0
2019-04-07T19:00:10.878Z,0
2019-04-07T19:01:22.785Z,0
2019-04-07T19:02:34.982Z,0
2019-04-07T19:04:59.330Z,0
2019-04-07T19:06:11.646Z,0
2019-04-07T19:07:23.776Z,0
2019-04-07T19:08:35.947Z,0
2019-04-07T19:09:48.159Z,0
2019-04-07T19:11:00.336Z,0
2019-04-07T19:12:12.647Z,0
2019-04-07T19:13:24.785Z,0
2019-04-07T19:14:36.912Z,0
2019-04-07T19:17:01.287Z,0
2019-04-07T19:18:13.657Z,0
2019-04-07T19:19:25.676Z,0
2019-04-07T19:20:37.975Z,0
2019-04-07T19:21:50.059Z,0
2019-04-07T19:23:02.262Z,0
2019-04-07T19:24:14.474Z,0
2019-04-07T19:25:26.695Z,0
2019-04-07T19:26:38.822Z,0
2019-04-07T19:27:51.134Z,0
2019-04-07T19:29:03.374Z,0
2019-04-07T19:30:15.479Z,0
2019-04-07T19:31:27.649Z,0
2019-04-07T19:32:39.789Z,0
2019-04-07T19:33:52.318Z,0
2019-04-07T19:35:04.190Z,0
2019-04-07T19:36:16.396Z,0
2019-04-07T19:37:28.640Z,0
2019-04-07T19:38:40.775Z,0
2019-04-07T19:41:05.206Z,0
2019-04-07T19:42:17.444Z,0
2019-04-07T19:43:29.639Z,0
2019-04-07T19:44:41.805Z,0
2019-04-07T19:45:53.923Z,0
2019-04-07T19:47:06.176Z,0
2019-04-07T19:48:19.217Z,0
2019-04-07T19:49:30.511Z,0
2019-04-07T19:50:44.418Z,0
2019-04-07T19:51:54.902Z,0
2019-04-07T19:53:07.100Z,0
2019-04-07T19:54:19.291Z,0
2019-04-07T19:55:31.546Z,0
2019-04-07T19:56:43.726Z,0
2019-04-07T19:57:55.964Z,0
2019-04-07T19:59:08.190Z,0
2019-04-07T20:00:20.370Z,0
2019-04-07T20:01:32.469Z,0